Timeline UpdatesTrip UpdatesNews PostsPvt Posts♥♥Travel TipsAdmin PostsConv PostsFollowed PostsChat RequestsBlog PostsPNR Posts

Disclaimer
Search
 
 
Sun Dec 21, 2014 00:10:11 ISTHomeTrainsΣChainsAtlasPNRForumGalleryNewsFAQTripsMembersLoginFeedback
Latest...
Will be rescheduled conveniently on 03.02.2013 (Sunday)
Sat Feb 02, 2013 (03:29PM)
⇐ Return Journey: Train# 13414

13413/Farakka Express (via Sultanpur)

Time-Table HAS CHANGED.
Sep 01 2014 (11:49PM)
Change Departure Station:
Change Arrival Station:
Post a Train Travel TipPost a Train Travel Tip **new
Post a Comment/Question/Picture/VideoPost a Comment/Question/Picture/Video
Pantry/Catering
✓ Pantry Car Avbl
✓ Catering Avbl
RSA - Rake Sharing
13483/13484/04031/04032
Rake/Coach Composition
Entry# 1182283 Author:Manu ; LOCO-HPCV-SLR-UR-UR-UR-UR-UR-UR-B1-A1-PC-S9-S8-S7-S6-S5-S4-S3-S2-S1-UR-UR-SLR
Loco
LKO WDM 3A/3D [MLDT to LKO] GZB WAP 5/7...
Read more...
[LKO to DLI] Offlink:-WAP 1 GZB/WAP 4 GZB
News    PNR    Forum    Time-Table    Availability    Fare Chart    Map    Arr/Dep History    Trips    Gallery    ΣChains    X/O    Timeline    
Travel Time: 17h 11m    37 halts    Distance: 689 km    Avg Speed: 40 km/hr
Type: Mail/Express
Zone: ER/Eastern
Departs @ 19:10 (Avg 45m late)
Platform# ???
 M  T S
Malda Town/MLDT 
Arrives @ 12:21 +1 night (Avg 1h 56m late)
Platform# 2
S T  F 
Jaunpur City/JOP 

37 halts. 157 intermediate Stations between Malda Town and Jaunpur City

Show ALL intermediate Stations  Show Old Time-Table

#TrkCodeStation NameX/OArrivesAvgDepartsAvgHaltPFDay#KmSpeedElevZoneAddress
1%==%MLDTMalda Town (5)»  -19:10+45--10.06430mERDist - Malda, West Bengal
2%==%NFKNew Farakka Junction (3)  19:43+5519:53+5910m1135.13432mERDist - Murshidabad, West Bengal
3|==|BHWBarharwa Junction (3)X  20:25+5720:29+1:004m1153.16336mERBarharwa, Jharkhand
4|==|TPHTinpahar Junction (3)X  20:47 20:45+1:0820:48 20:46+1:201m1169.84245mERBamangawan, Jharkhand
5!==!SBGSahibganj Junction (3)X  21:40+1:1921:50+1:1710m21107.54338mERSahibganj, Jharkhand
6!==!PPTPirpainti (2)  22:23+1:1922:24+1:211m--1131.15653mERBhagalpur, Bihar
7!==!CLGKahalgaon (2)O  22:46+1:2522:47+1:261m21151.45944mERBhagalpur, Bihar
8!==!SBOSabaur (3)  23:10+1:3123:11+1:311m--1173.92442mERSabour, Bihar
9!==|BGPBhagalpur Junction (6)X  23:30+1:2123:40+1:1810m--1181.57949mERBhagalpur, Bihar
10|==|SGGSultanGanj (3)  23:59+1:3100:01+1:322m--1206.44542mERSultanganj, Bihar
11|==|BUPBariarpur (3)  00:25+1:2700:26+1:281m--2224.44542mERMunger, Bihar
12|-=|JMPJamalpur Junction (4)X  00:41+1:3100:51+1:2910m--2235.56959mERDist: Munger 06344-243101, Bihar
13|==|AHAAbhaipur (3)  01:10+1:3201:11+1:331m--2257.32252mERAbhaipur, Bihar
14!=-|KIULKiul Junction (5)  02:15+1:0802:25+1:1110m--2280.35853mECRDist. Lakhisarai, Bihar
15/=-/BRYABarhiya (3)O  02:42+1:1802:43+1:191m--2296.85647mECRBarahiya, Bihar
16/==/MKAMokama Junction (4)  03:02+1:2103:04+1:222m--2314.55048mECRPatna, Bihar
17/==/BARHBarh (3)X  03:34 03:35+1:2203:36+1:272 1m--2340.25749mECRBarh, Bihar
18/==/BKPBakhtiyarpur Junction (5)  03:55+1:2603:59+1:284m--2358.48751mECRPatna, Bihar
19/==/FUTFatwa (6)  04:14 04:15+1:4904:16+1:502 1m--2381.61753mECRPatna, Bihar
20/==/PNCPatna Saheb (3)  04:54 05:00+1:2404:56 05:01+1:262 1m--2393.94459mECRPatna 800008, Bihar
21/==/RJPBRajendra Nagar Bihar (4)  05:11+1:3005:13+1:312m--2401.12255mECRPatna 800001, Bihar
22/==/PNBEPatna Junction (10)X  05:20+1:3605:30+1:4110m52403.83857mECRPatna 800001, Bihar
23/==/DNRDanapur (5)X  05:45+1:5805:55+2:0210m--2413.18758mECRKhagaul, Bihar
24/==/BTABihta (2)  06:07+2:1106:08+2:131m--2430.55862mECRDistt: Patna, Bihar
25/==/ARAAra Junction (3)  06:31+2:1506:33+2:172m--2452.79263mECRDistt: Bhojpur Ph 06182-233411, Bihar
26/==/BEABihiya (3)  06:46 06:47+2:3006:48+2:362 1m--2474.17467mECRBehea, Bihar
27/==/RPRRaghunathpur (4)  06:59 07:00+2:3807:01+2:442 1m--2488.97469mECRRaghunathpur, Bihar
28/==/DUREDumraon (3)X  07:13 07:14+2:4707:15+2:482 1m--2504.94970mECRDumraon, Bihar
29/==/BXRBuxar (3)X  07:35+2:4307:40+2:415m22521.27367mECRBuxar, Bihar
30/==/CSAChausa (2)  07:48 07:49+2:2407:50+2:042 1m--2532.14368mECRState Highway 14, Bihar
31/==/GMRGahmar (2)  08:03+2:0308:04+2:041m--2541.37068mECRDistt: Ghazipur, Uttar Pradesh
32/==/BWHBhadaura (2)X08:10 08:11+1:4808:12+1:492 1m--2549.54769mECRGhazipur, Uttar Pradesh
33/==/DLNDildarnagar Junction (2)  08:22+2:0908:24+2:092m--2557.48172mECRDildarnagar, Uttar Pradesh
34/==/ZNAZamania (2)  08:33 08:34+2:1208:35+2:152 1m--2570.92977mECRGhazipur, Uttar Pradesh
35/==/MGSMughal Sarai Junction (8)  10:05+1:4310:20+1:4615m32615.12583mECRDistt: Chandauli Pin 232101, Uttar Pradesh
36/==/BSBVaranasi Junction (9)  11:00+1:5011:20+1:4720m82631.57382mNRVaranasi 221002, Uttar Pradesh
37/==/JLLJalalGanj (2)X  11:52+1:5611:53+1:591m--2670.74587mNRJalalganj Railway Station, Uttar Pradesh
38/==/ZBDZafarabad Junction (4)X  12:09+2:0212:10+2:051m--2682.83483mNRNational Highway 56, Uttar Pradesh
39/==/JOPJaunpur City (3)•X  12:20 12:21+1:5612:22+1:572 1m22689.07087mNRJaunpur, Uttar Pradesh
40/==%SKNSri Krishna Nagar (2)  12:46+2:0912:47+2:151m12717.04492mNRBadlapur, Uttar Pradesh
41%==%HRPGHarpalGanj (1)X  12:59 12:58+2:1913:00 12:59+2:241m12725.04090mNRNational Highway 56, Uttar Pradesh
42%==%KEPRKoiripur (1)X  13:16 13:15+2:1713:17 13:16+2:221m12735.76196mNRNational Highway 56, Uttar Pradesh
43%==%LBALambhua (1)  13:34 13:33+2:2813:35 13:34+2:311m12752.93797mNRLambhua, Uttar Pradesh
44%==/SLNSultanpur Junction (3)  14:10+2:0714:20+2:0710m12774.87099mNRSultanpur., Uttar Pradesh
45%==%MFKAMusafir Khana (3)  14:47+2:2314:48+2:261m12806.467105mNRMusfirKhana, Uttar Pradesh
46%==%NHHNihalgarh (3)  15:05+2:3315:06+2:361m12825.361108mNRJagdishpur, Uttar Pradesh
47%==%AKJAkbarGanj (1)  15:21+2:4515:22+2:461m12840.560112mNRSH 31, Uttar Pradesh
48%==%HGHHaidergarh (2)  15:39+2:5015:40+2:521m--2857.516116mNRState Highway 13, Uttar Pradesh
49/==/LKOLucknow Charbagh NR (9)X19:10+1:3119:35+1:3525m62914.267124mNRLucknow 226004, Uttar Pradesh
50/==/ONUnnao Junction (5)X  20:23 20:24+1:2420:25+1:262 1m--2968.826129mNRUnnao, Uttar Pradesh
51/==/CNBKanpur Central (10)X  21:05+1:4221:15+1:4710m62986.286128mNCRKANPUR-208 001, Uttar Pradesh
52/==/ETWEtawah (5)X  22:51 22:52+1:4922:53+1:532 1m221125.681154mNCRDistt. Etawah, Uttar Pradesh
53/==/SKBShikohabad Junction (4)X  23:33 23:34+2:0123:35+2:052 1m321181.054166mNCRDistrict Firozabad, Uttar Pradesh
54/==/FZDFirozabad (4)  23:56 23:57+2:0623:58+2:112 1m321200.831164mNCRFirozabad, Uttar Pradesh
55/==/TDLTundla Junction (5)X  00:30+2:0600:38+2:068m231217.454167mNCRDistt.Firozabad, Uttar Pradesh
56/==/HRSHathras Junction (3)  01:17 01:31+2:1101:19 01:32+2:162 1m--31265.382183mNCRMahamaya Nagar(05722-242803), Uttar Pradesh
57/==/ALJNAligarh Junction (4)  01:41 01:54+2:2901:46 01:59+2:305m331295.5119192mNCRAligarh, Uttar Pradesh
58/==/KRJKhurja Junction (4)  02:16 02:21+2:4902:21 02:26+2:475m--31339.045199mNCRBulandshahr, Uttar Pradesh
59/==/GZBGhaziabad Junction (6)O  03:40 03:50+2:4503:42 03:52+2:442m331401.737217mNRGhaziabad, Uttar Pradesh
60/==/SBBSahibabad Junction (5)  03:51 04:03+2:3803:53 04:04+2:382 1m--31408.438209mNRGhaziabad, Uttar Pradesh
61/==/DSAShahdara Junction (4)  04:04 04:15+2:3304:06 04:16+2:342 1m--31415.316212mNRCircular Rd, Delhi NCT
62/==/DLIOld Delhi Junction (16)  04:30 04:40+2:49-1031421.6-219mNRNear Chandni Chowk Metro Station, Delhi NCT
Scroll to Top
Scroll to Bottom


Go to Mobile site